createdAt,value
2018-05-08T00:01:56.551Z,11.90
2018-05-08T00:04:22.807Z,11.90
2018-05-08T00:06:49.897Z,12.00
2018-05-08T00:09:16.162Z,12.00
2018-05-08T00:11:42.397Z,12.00
2018-05-08T00:14:08.662Z,12.00
2018-05-08T00:16:34.891Z,12.00
2018-05-08T00:19:01.141Z,11.90
2018-05-08T00:21:27.380Z,11.90
2018-05-08T00:23:54.439Z,11.80
2018-05-08T00:26:21.417Z,11.80
2018-05-08T00:28:47.688Z,11.70
2018-05-08T00:31:13.918Z,11.70
2018-05-08T00:33:40.156Z,11.60
2018-05-08T00:36:06.520Z,11.60
2018-05-08T00:38:32.736Z,11.60
2018-05-08T00:40:58.974Z,11.60
2018-05-08T00:43:25.214Z,11.40
2018-05-08T00:45:51.496Z,11.40
2018-05-08T00:48:17.754Z,11.40
2018-05-08T00:50:44.053Z,11.40
2018-05-08T00:53:11.028Z,11.40
2018-05-08T00:55:37.264Z,11.40
2018-05-08T00:58:03.517Z,11.30
2018-05-08T01:00:30.153Z,11.40
2018-05-08T01:02:57.498Z,11.40
2018-05-08T01:05:23.791Z,11.40
2018-05-08T01:07:50.813Z,11.50
2018-05-08T01:10:17.828Z,11.60
2018-05-08T01:12:44.887Z,11.70
2018-05-08T01:15:11.905Z,11.90
2018-05-08T01:17:39.669Z,12.00
2018-05-08T01:20:05.890Z,12.00
2018-05-08T01:22:32.143Z,12.10
2018-05-08T01:24:58.461Z,12.00
2018-05-08T01:27:25.042Z,11.90
2018-05-08T01:29:51.328Z,11.90
2018-05-08T01:32:17.591Z,11.80
2018-05-08T01:34:43.832Z,11.70
2018-05-08T01:37:10.034Z,11.70
2018-05-08T01:39:37.406Z,11.60
2018-05-08T01:42:03.707Z,11.50
2018-05-08T01:44:30.657Z,11.60
2018-05-08T01:46:57.623Z,11.50
2018-05-08T01:49:24.279Z,11.60
2018-05-08T01:51:50.536Z,11.70
2018-05-08T01:54:16.892Z,11.60
2018-05-08T01:56:43.166Z,11.60
2018-05-08T01:59:10.181Z,11.60
2018-05-08T02:01:36.415Z,11.60
2018-05-08T02:04:02.669Z,11.60
2018-05-08T02:06:28.909Z,11.60
2018-05-08T02:08:55.923Z,11.70
2018-05-08T02:11:22.163Z,11.70
2018-05-08T02:13:48.419Z,11.70
2018-05-08T02:16:15.004Z,11.80
2018-05-08T02:18:41.267Z,11.70
2018-05-08T02:21:07.514Z,11.90
2018-05-08T02:23:33.825Z,12.10
2018-05-08T02:26:00.125Z,12.20
2018-05-08T02:28:26.353Z,12.30
2018-05-08T02:30:53.304Z,12.40
2018-05-08T02:33:19.538Z,12.40
2018-05-08T02:35:45.783Z,12.40
2018-05-08T02:38:12.797Z,12.50
2018-05-08T02:40:39.803Z,12.50
2018-05-08T02:43:06.119Z,12.40
2018-05-08T02:45:32.373Z,12.40
2018-05-08T02:47:59.319Z,12.40
2018-05-08T02:50:25.602Z,12.50
2018-05-08T02:52:51.869Z,12.50
2018-05-08T02:55:18.964Z,12.70
2018-05-08T02:57:45.180Z,12.80
2018-05-08T03:00:12.252Z,12.80
2018-05-08T03:02:38.489Z,12.80
2018-05-08T03:05:04.743Z,12.80
2018-05-08T03:07:31.043Z,12.90
2018-05-08T03:09:57.308Z,12.90
2018-05-08T03:12:23.569Z,12.90
2018-05-08T03:14:49.811Z,12.90
2018-05-08T03:17:16.083Z,12.90
2018-05-08T03:19:43.071Z,12.90
2018-05-08T03:22:09.359Z,13.00
2018-05-08T03:24:36.329Z,13.10
2018-05-08T03:27:03.323Z,12.90
2018-05-08T03:29:29.558Z,12.80
2018-05-08T03:31:55.818Z,12.70
2018-05-08T03:34:22.763Z,12.60
2018-05-08T03:36:48.989Z,12.40
2018-05-08T03:39:15.239Z,12.40
2018-05-08T03:41:41.508Z,12.30
2018-05-08T03:44:08.477Z,12.40
2018-05-08T03:46:34.708Z,12.50
2018-05-08T03:49:01.364Z,12.50
2018-05-08T03:51:27.627Z,12.60
2018-05-08T03:53:54.048Z,12.70
2018-05-08T03:56:20.659Z,12.70
2018-05-08T03:58:47.687Z,12.80
2018-05-08T04:01:26.213Z,12.60
2018-05-08T04:04:04.830Z,12.60
2018-05-08T04:09:38.377Z,12.70
2018-05-08T04:12:04.628Z,12.60
2018-05-08T04:14:31.649Z,12.60
2018-05-08T04:16:58.650Z,12.70
2018-05-08T04:19:24.941Z,12.60
2018-05-08T04:21:51.185Z,12.60
2018-05-08T04:24:17.447Z,12.60
2018-05-08T04:26:43.684Z,12.70
2018-05-08T04:29:09.904Z,12.60
2018-05-08T04:31:36.124Z,12.60
2018-05-08T04:34:02.437Z,12.50
2018-05-08T04:36:29.491Z,12.50
2018-05-08T04:38:56.068Z,12.50
2018-05-08T04:41:22.287Z,12.60
2018-05-08T04:43:48.572Z,12.60
2018-05-08T04:46:14.859Z,12.70
2018-05-08T04:48:41.103Z,12.80
2018-05-08T04:51:07.743Z,12.90
2018-05-08T04:53:34.063Z,12.80
2018-05-08T04:56:01.073Z,13.10
2018-05-08T04:58:27.329Z,13.10
2018-05-08T05:00:53.616Z,13.20
2018-05-08T05:03:19.860Z,13.20
2018-05-08T05:05:46.890Z,13.30
2018-05-08T05:08:13.839Z,13.30
2018-05-08T05:10:40.868Z,13.30
2018-05-08T05:13:07.109Z,13.30
2018-05-08T05:15:33.380Z,13.30
2018-05-08T05:17:59.777Z,13.40
2018-05-08T05:20:26.035Z,13.40
2018-05-08T05:22:53.103Z,13.50
2018-05-08T05:25:19.734Z,13.60
2018-05-08T05:27:46.720Z,13.60
2018-05-08T05:30:13.020Z,13.60
2018-05-08T05:32:40.045Z,13.60
2018-05-08T05:35:06.367Z,13.60
2018-05-08T05:37:32.651Z,13.70
2018-05-08T05:39:59.610Z,13.70
2018-05-08T05:42:25.880Z,13.80
2018-05-08T05:44:52.085Z,13.70
2018-05-08T05:47:18.356Z,13.80
2018-05-08T05:49:44.614Z,13.80
2018-05-08T05:52:10.895Z,13.90
2018-05-08T05:54:37.119Z,14.00
2018-05-08T05:57:04.124Z,14.10
2018-05-08T05:59:30.411Z,14.20
2018-05-08T06:01:57.047Z,14.20
2018-05-08T06:04:24.060Z,14.30
2018-05-08T06:06:50.367Z,14.30
2018-05-08T06:09:16.660Z,14.40
2018-05-08T06:11:42.909Z,14.40
2018-05-08T06:14:09.965Z,14.50
2018-05-08T06:16:36.976Z,14.60
2018-05-08T06:19:03.598Z,14.70
2018-05-08T06:21:29.904Z,14.70
2018-05-08T06:23:56.956Z,14.80
2018-05-08T06:26:24.004Z,14.80
2018-05-08T06:28:51.013Z,14.90
2018-05-08T06:31:17.230Z,14.90
2018-05-08T06:33:43.459Z,15.10
2018-05-08T06:36:09.715Z,15.10
2018-05-08T06:38:36.701Z,15.30
2018-05-08T06:41:02.968Z,15.30
2018-05-08T06:43:29.199Z,14.40
2018-05-08T06:45:55.484Z,15.40
2018-05-08T06:48:21.720Z,15.50
2018-05-08T06:50:48.009Z,15.60
2018-05-08T06:53:14.255Z,15.70
2018-05-08T06:55:41.264Z,15.80
2018-05-08T06:58:07.519Z,15.90
2018-05-08T07:00:34.541Z,16.00
2018-05-08T07:03:01.138Z,16.10
2018-05-08T07:05:27.404Z,16.20
2018-05-08T07:07:54.405Z,16.30
2018-05-08T07:10:21.404Z,16.40
2018-05-08T07:12:48.429Z,16.40
2018-05-08T07:15:14.690Z,16.50
2018-05-08T07:17:40.950Z,16.50
2018-05-08T07:20:07.190Z,16.50
2018-05-08T07:22:33.512Z,16.60
2018-05-08T07:24:59.744Z,16.70
2018-05-08T07:27:26.022Z,16.80
2018-05-08T07:29:53.034Z,17.00
2018-05-08T07:32:19.275Z,17.10
2018-05-08T07:34:45.525Z,17.10
2018-05-08T07:37:11.831Z,17.30
2018-05-08T07:39:38.075Z,17.50
2018-05-08T07:42:04.341Z,17.40
2018-05-08T07:44:31.344Z,17.40
2018-05-08T07:46:57.590Z,17.40
2018-05-08T07:49:23.846Z,17.30
2018-05-08T07:51:50.160Z,17.40
2018-05-08T07:54:16.383Z,17.40
2018-05-08T07:56:42.641Z,17.40
2018-05-08T07:59:08.922Z,17.50
2018-05-08T08:01:35.910Z,17.80
2018-05-08T08:04:02.191Z,17.70
2018-05-08T08:06:28.435Z,17.90
2018-05-08T08:08:55.435Z,18.00
2018-05-08T08:11:22.671Z,18.00
2018-05-08T08:13:48.931Z,18.20
2018-05-08T08:16:15.601Z,18.20
2018-05-08T08:18:41.861Z,18.20
2018-05-08T08:21:08.169Z,18.10
2018-05-08T08:23:35.209Z,18.20
2018-05-08T08:26:01.498Z,18.20
2018-05-08T08:28:28.495Z,18.20
2018-05-08T08:30:54.736Z,18.20
2018-05-08T08:33:21.380Z,18.30
2018-05-08T08:35:47.684Z,18.40
2018-05-08T08:38:14.780Z,18.30
2018-05-08T08:40:41.765Z,18.40
2018-05-08T08:43:08.038Z,18.40
2018-05-08T08:45:34.316Z,18.40
2018-05-08T08:48:00.567Z,18.50
2018-05-08T08:50:26.948Z,18.60
2018-05-08T08:52:53.953Z,18.70
2018-05-08T08:55:20.194Z,18.80
2018-05-08T08:57:46.511Z,19.00
2018-05-08T09:00:13.537Z,19.10
2018-05-08T09:02:39.821Z,19.10
2018-05-08T09:05:06.092Z,19.40
2018-05-08T09:07:32.403Z,19.50
2018-05-08T09:09:59.047Z,19.60
2018-05-08T09:12:25.433Z,19.60
2018-05-08T09:14:51.701Z,19.80
2018-05-08T09:17:18.012Z,19.70
2018-05-08T09:19:44.265Z,19.90
2018-05-08T09:22:10.578Z,19.80
2018-05-08T09:24:36.841Z,20.10
2018-05-08T09:27:03.052Z,19.90
2018-05-08T09:29:30.964Z,20.00
2018-05-08T09:31:57.301Z,20.20
2018-05-08T09:34:23.559Z,20.20
2018-05-08T09:36:50.596Z,20.10
2018-05-08T09:39:16.871Z,20.10
2018-05-08T09:41:44.636Z,20.30
2018-05-08T09:44:11.715Z,20.40
2018-05-08T09:46:37.986Z,20.40
2018-05-08T09:49:04.290Z,20.40
2018-05-08T09:51:30.531Z,20.40
2018-05-08T09:53:56.777Z,20.40
2018-05-08T09:56:23.037Z,20.30
2018-05-08T09:58:49.268Z,20.30
2018-05-08T10:01:15.575Z,20.40
2018-05-08T10:03:41.901Z,20.40
2018-05-08T10:06:08.308Z,20.60
2018-05-08T10:08:35.321Z,20.70
2018-05-08T10:11:01.644Z,20.70
2018-05-08T10:16:07.736Z,20.80
2018-05-08T10:18:34.033Z,20.90
2018-05-08T10:21:00.368Z,20.80
2018-05-08T10:23:26.633Z,20.90
2018-05-08T10:25:52.889Z,20.80
2018-05-08T10:28:19.164Z,20.80
2018-05-08T10:30:46.212Z,20.80
2018-05-08T10:33:12.891Z,20.70
2018-05-08T10:35:39.206Z,20.70
2018-05-08T10:38:05.492Z,20.80
2018-05-08T10:40:31.757Z,21.00
2018-05-08T10:42:58.821Z,21.10
2018-05-08T10:45:25.192Z,21.30
2018-05-08T10:47:51.438Z,21.20
2018-05-08T10:50:17.731Z,21.30
2018-05-08T10:52:44.334Z,21.30
2018-05-08T10:55:11.002Z,21.40
2018-05-08T10:57:38.024Z,21.40
2018-05-08T11:00:04.349Z,21.40
2018-05-08T11:02:30.913Z,21.50
2018-05-08T11:04:57.196Z,21.50
2018-05-08T11:07:24.243Z,21.70
2018-05-08T11:09:51.290Z,21.90
2018-05-08T11:12:18.253Z,21.90
2018-05-08T11:14:45.264Z,21.90
2018-05-08T11:17:11.517Z,22.00
2018-05-08T11:19:37.787Z,22.20
2018-05-08T11:22:04.792Z,22.30
2018-05-08T11:24:31.023Z,22.40
2018-05-08T11:26:57.331Z,22.40
2018-05-08T11:29:24.342Z,22.60
2018-05-08T11:31:50.632Z,22.60
2018-05-08T11:34:17.610Z,22.60
2018-05-08T11:36:43.876Z,22.60
2018-05-08T11:39:10.931Z,22.60
2018-05-08T11:41:37.204Z,22.70
2018-05-08T11:44:03.484Z,22.80
2018-05-08T11:46:29.815Z,22.80
2018-05-08T11:49:05.939Z,22.80
2018-05-08T11:51:32.295Z,22.80
2018-05-08T11:53:59.533Z,22.50
2018-05-08T11:56:25.823Z,22.50
2018-05-08T11:58:52.108Z,22.80
2018-05-08T12:01:18.443Z,22.80
2018-05-08T12:03:44.782Z,23.10
2018-05-08T12:06:11.023Z,23.00
2018-05-08T12:08:37.308Z,23.30
2018-05-08T12:11:03.583Z,23.30
2018-05-08T12:13:29.868Z,23.50
2018-05-08T12:15:56.182Z,23.50
2018-05-08T12:18:22.502Z,23.70
2018-05-08T12:20:48.729Z,23.90
2018-05-08T12:23:15.037Z,24.00
2018-05-08T12:25:42.101Z,24.10
2018-05-08T12:28:08.362Z,24.10
2018-05-08T12:30:34.678Z,24.30
2018-05-08T12:33:00.919Z,24.10
2018-05-08T12:35:27.233Z,24.30
2018-05-08T12:37:54.197Z,24.40
2018-05-08T12:40:21.275Z,24.40
2018-05-08T12:42:48.379Z,24.60
2018-05-08T12:45:14.678Z,24.60
2018-05-08T12:47:41.019Z,24.70
2018-05-08T12:50:07.337Z,24.70
2018-05-08T12:52:33.578Z,24.70
2018-05-08T12:54:59.998Z,24.40
2018-05-08T12:57:26.962Z,24.20
2018-05-08T12:59:53.261Z,24.10
2018-05-08T13:02:19.547Z,23.60
2018-05-08T13:04:45.788Z,23.60
2018-05-08T13:07:12.099Z,23.40
2018-05-08T13:09:38.488Z,23.40
2018-05-08T13:12:04.779Z,23.30
2018-05-08T13:14:31.019Z,23.40
2018-05-08T13:16:57.312Z,23.40
2018-05-08T13:19:23.798Z,23.60
2018-05-08T13:21:50.869Z,23.80
2018-05-08T13:24:17.197Z,24.10
2018-05-08T13:26:43.409Z,24.20
2018-05-08T13:29:10.495Z,26.20
2018-05-08T13:31:36.754Z,26.30
2018-05-08T13:34:03.019Z,30.70
2018-05-08T13:36:29.315Z,32.30
2018-05-08T13:38:55.629Z,33.20
2018-05-08T13:41:21.854Z,32.70
2018-05-08T13:43:48.145Z,30.90
2018-05-08T13:46:14.368Z,29.00
2018-05-08T13:48:40.708Z,27.70
2018-05-08T13:51:07.693Z,27.30
2018-05-08T13:53:34.690Z,26.70
2018-05-08T13:56:00.983Z,26.40
2018-05-08T13:58:27.998Z,26.00
2018-05-08T14:00:54.343Z,25.90
2018-05-08T14:05:59.797Z,25.30
2018-05-08T14:08:26.039Z,25.80
2018-05-08T14:10:52.333Z,26.90
2018-05-08T14:13:18.602Z,26.80
2018-05-08T14:15:45.658Z,26.80
2018-05-08T14:18:11.893Z,26.10
2018-05-08T14:20:38.205Z,25.70
2018-05-08T14:23:04.468Z,25.90
2018-05-08T14:25:31.519Z,26.60
2018-05-08T14:27:57.829Z,28.30
2018-05-08T14:30:24.134Z,30.80
2018-05-08T14:32:50.452Z,33.40
2018-05-08T14:35:16.740Z,34.80
2018-05-08T14:37:42.999Z,34.30
2018-05-08T14:40:09.235Z,34.30
2018-05-08T14:42:35.504Z,31.00
2018-05-08T14:45:01.786Z,32.80
2018-05-08T14:47:28.085Z,34.50
2018-05-08T14:49:54.725Z,35.60
2018-05-08T14:52:21.707Z,36.50
2018-05-08T14:54:48.050Z,37.20
2018-05-08T14:57:14.310Z,37.30
2018-05-08T14:59:40.629Z,37.00
2018-05-08T15:02:07.343Z,37.20
2018-05-08T15:04:33.654Z,36.70
2018-05-08T15:06:59.904Z,36.40
2018-05-08T15:09:26.243Z,36.00
2018-05-08T15:11:52.525Z,35.80
2018-05-08T15:14:18.890Z,35.40
2018-05-08T15:16:46.699Z,34.90
2018-05-08T15:19:13.820Z,34.40
2018-05-08T15:21:40.197Z,34.00
2018-05-08T15:24:06.371Z,33.40
2018-05-08T15:26:32.698Z,32.70
2018-05-08T15:28:58.969Z,32.10
2018-05-08T15:31:25.245Z,31.80
2018-05-08T15:33:52.309Z,30.70
2018-05-08T15:36:19.438Z,30.30
2018-05-08T15:38:45.710Z,29.60
2018-05-08T15:41:12.174Z,29.50
2018-05-08T15:43:39.107Z,28.10
2018-05-08T15:46:05.394Z,27.50
2018-05-08T15:48:31.697Z,27.20
2018-05-08T15:50:58.408Z,26.70
2018-05-08T15:53:25.437Z,26.30
2018-05-08T15:55:51.719Z,26.10
2018-05-08T15:58:18.078Z,25.70
2018-05-08T16:00:44.385Z,25.50
2018-05-08T16:03:11.087Z,25.20
2018-05-08T16:05:37.366Z,25.20
2018-05-08T16:08:03.698Z,25.00
2018-05-08T16:10:30.749Z,24.70
2018-05-08T16:12:57.079Z,24.70
2018-05-08T16:15:24.124Z,24.50
2018-05-08T16:17:51.229Z,24.30
2018-05-08T16:20:17.500Z,24.20
2018-05-08T16:22:44.538Z,24.20
2018-05-08T16:25:10.807Z,24.10
2018-05-08T16:27:37.839Z,24.10
2018-05-08T16:30:04.839Z,24.10
2018-05-08T16:32:31.120Z,24.00
2018-05-08T16:34:57.394Z,23.90
2018-05-08T16:37:25.036Z,23.80
2018-05-08T16:39:51.355Z,23.70
2018-05-08T16:42:17.659Z,23.50
2018-05-08T16:44:43.945Z,23.40
2018-05-08T16:47:10.241Z,23.30
2018-05-08T16:49:37.359Z,23.10
2018-05-08T16:52:04.389Z,23.00
2018-05-08T16:54:31.076Z,22.90
2018-05-08T16:56:57.371Z,22.80
2018-05-08T16:59:23.692Z,22.70
2018-05-08T17:01:50.339Z,22.50
2018-05-08T17:04:16.589Z,22.50
2018-05-08T17:06:44.364Z,22.50
2018-05-08T17:09:10.659Z,22.50
2018-05-08T17:11:36.953Z,22.40
2018-05-08T17:14:03.981Z,22.40
2018-05-08T17:16:30.211Z,22.30
2018-05-08T17:18:56.514Z,22.30
2018-05-08T17:21:23.145Z,22.10
2018-05-08T17:23:49.461Z,22.10
2018-05-08T17:26:16.459Z,22.00
2018-05-08T17:28:42.748Z,21.90
2018-05-08T17:31:09.832Z,21.80
2018-05-08T17:33:36.280Z,21.70
2018-05-08T17:36:03.184Z,21.50
2018-05-08T17:38:29.538Z,21.50
2018-05-08T17:40:56.816Z,21.40
2018-05-08T17:43:23.126Z,21.20
2018-05-08T17:45:50.114Z,21.00
2018-05-08T17:48:16.455Z,20.90
2018-05-08T17:50:43.090Z,20.70
2018-05-08T17:53:09.341Z,20.60
2018-05-08T17:55:35.657Z,20.40
2018-05-08T17:58:02.316Z,20.20
2018-05-08T18:00:29.365Z,20.00
2018-05-08T18:02:55.641Z,19.90
2018-05-08T18:05:22.021Z,19.70
2018-05-08T18:07:49.017Z,19.60
2018-05-08T18:10:15.344Z,19.40
2018-05-08T18:12:41.651Z,19.30
2018-05-08T18:15:08.345Z,19.10
2018-05-08T18:17:34.814Z,18.90
2018-05-08T18:20:01.775Z,18.70
2018-05-08T18:22:28.807Z,18.50
2018-05-08T18:24:55.116Z,18.50
2018-05-08T18:27:22.292Z,18.30
2018-05-08T18:29:48.588Z,18.10
2018-05-08T18:32:14.880Z,18.20
2018-05-08T18:34:41.235Z,17.80
2018-05-08T18:37:08.245Z,17.70
2018-05-08T18:39:34.620Z,17.50
2018-05-08T18:42:01.705Z,17.40
2018-05-08T18:44:28.044Z,17.40
2018-05-08T18:46:54.330Z,17.20
2018-05-08T18:49:20.624Z,17.10
2018-05-08T18:51:47.621Z,17.00
2018-05-08T18:54:13.910Z,16.90
2018-05-08T18:56:40.237Z,16.80
2018-05-08T18:59:06.469Z,16.60
2018-05-08T19:01:33.501Z,16.40
2018-05-08T19:03:59.804Z,16.40
2018-05-08T19:06:26.099Z,16.20
2018-05-08T19:08:52.430Z,16.10
2018-05-08T19:11:24.845Z,15.90
2018-05-08T19:13:51.215Z,15.80
2018-05-08T19:16:17.552Z,15.70
2018-05-08T19:18:49.885Z,15.60
2018-05-08T19:21:16.202Z,15.40
2018-05-08T19:23:48.565Z,15.30
2018-05-08T19:26:15.655Z,15.30
2018-05-08T19:28:48.101Z,15.20
2018-05-08T19:31:15.784Z,15.10
2018-05-08T19:33:42.094Z,15.00
2018-05-08T19:36:15.104Z,14.90
2018-05-08T19:38:41.441Z,14.80
2018-05-08T19:41:08.107Z,14.70
2018-05-08T19:43:34.434Z,14.60
2018-05-08T19:46:00.676Z,14.50
2018-05-08T19:48:27.372Z,14.50
2018-05-08T19:50:53.717Z,14.40
2018-05-08T19:53:20.391Z,14.30
2018-05-08T19:55:46.763Z,14.30
2018-05-08T19:58:13.020Z,14.20
2018-05-08T20:00:39.715Z,14.20
2018-05-08T20:03:06.031Z,14.10
2018-05-08T20:05:34.003Z,14.10
2018-05-08T20:08:01.020Z,14.00
2018-05-08T20:10:27.364Z,14.00
2018-05-08T20:12:54.401Z,14.00
2018-05-08T20:15:20.713Z,13.90
2018-05-08T20:17:47.565Z,13.90
2018-05-08T20:20:14.222Z,13.90
2018-05-08T20:22:40.859Z,13.90
2018-05-08T20:25:08.977Z,13.90
2018-05-08T20:27:36.572Z,14.00
2018-05-08T20:30:03.076Z,14.00
2018-05-08T20:32:30.095Z,14.00
2018-05-08T20:34:57.098Z,14.00
2018-05-08T20:37:23.867Z,14.00
2018-05-08T20:39:51.312Z,14.00
2018-05-08T20:42:18.545Z,14.00
2018-05-08T20:44:44.817Z,14.00
2018-05-08T20:47:11.922Z,14.00
2018-05-08T20:49:38.598Z,13.90
2018-05-08T20:52:05.254Z,13.80
2018-05-08T20:54:32.796Z,13.80
2018-05-08T20:56:59.065Z,13.60
2018-05-08T20:59:26.638Z,13.60
2018-05-08T21:01:53.640Z,13.60
2018-05-08T21:04:20.853Z,13.50
2018-05-08T21:06:47.852Z,13.40
2018-05-08T21:09:15.023Z,13.40
2018-05-08T21:11:41.770Z,13.30
2018-05-08T21:14:08.463Z,13.20
2018-05-08T21:16:34.747Z,13.20
2018-05-08T21:19:01.021Z,13.10
2018-05-08T21:21:27.654Z,13.10
2018-05-08T21:23:55.088Z,13.10
2018-05-08T21:26:21.436Z,13.00
2018-05-08T21:28:53.915Z,13.00
2018-05-08T21:31:20.252Z,13.00
2018-05-08T21:33:46.522Z,13.00
2018-05-08T21:36:13.195Z,12.90
2018-05-08T21:38:39.480Z,12.80
2018-05-08T21:41:06.742Z,12.70
2018-05-08T21:43:33.576Z,12.70
2018-05-08T21:46:01.172Z,12.60
2018-05-08T21:48:28.214Z,12.60
2018-05-08T21:50:55.563Z,12.50
2018-05-08T21:53:21.970Z,12.50
2018-05-08T21:55:48.730Z,12.50
2018-05-08T21:58:16.008Z,12.40
2018-05-08T22:00:43.721Z,12.30
2018-05-08T22:03:10.585Z,12.30
2018-05-08T22:05:37.286Z,12.20
2018-05-08T22:08:04.922Z,12.10
2018-05-08T22:10:31.197Z,12.00
2018-05-08T22:12:58.216Z,12.00
2018-05-08T22:15:25.312Z,11.90
2018-05-08T22:17:52.291Z,11.90
2018-05-08T22:20:18.577Z,11.80
2018-05-08T22:22:44.856Z,11.80
2018-05-08T22:25:11.167Z,11.80
2018-05-08T22:27:38.169Z,11.70
2018-05-08T22:30:04.444Z,11.70
2018-05-08T22:32:30.739Z,11.70
2018-05-08T22:34:56.990Z,11.70
2018-05-08T22:37:23.247Z,11.60
2018-05-08T22:39:49.544Z,11.60
2018-05-08T22:42:15.876Z,11.60
2018-05-08T22:44:42.211Z,11.50
2018-05-08T22:47:09.239Z,11.50
2018-05-08T22:49:36.240Z,11.50
2018-05-08T22:52:02.551Z,11.50
2018-05-08T22:54:28.777Z,11.50
2018-05-08T22:56:54.982Z,11.40
2018-05-08T22:59:21.212Z,11.50
2018-05-08T23:01:47.522Z,11.50
2018-05-08T23:04:13.814Z,11.50
2018-05-08T23:06:40.076Z,11.50
2018-05-08T23:09:06.401Z,11.60
2018-05-08T23:11:32.701Z,11.60
2018-05-08T23:13:59.812Z,11.60
2018-05-08T23:16:26.037Z,11.60
2018-05-08T23:18:52.402Z,11.60
2018-05-08T23:21:18.669Z,11.60
2018-05-08T23:23:45.695Z,11.60
2018-05-08T23:26:11.920Z,11.60
2018-05-08T23:28:38.182Z,11.60
2018-05-08T23:31:04.451Z,11.50
2018-05-08T23:33:30.701Z,11.60
2018-05-08T23:35:56.996Z,11.60
2018-05-08T23:38:23.250Z,11.60
2018-05-08T23:40:50.233Z,11.60
2018-05-08T23:43:16.474Z,11.60
2018-05-08T23:45:43.472Z,11.60
2018-05-08T23:48:09.736Z,11.50
2018-05-08T23:50:35.997Z,11.50
2018-05-08T23:53:02.256Z,11.40
2018-05-08T23:55:28.552Z,11.40
2018-05-08T23:57:55.232Z,11.50
